createdAt,value
2023-02-13T00:00:04.273Z,14.67
2023-02-13T00:03:06.785Z,14.60
2023-02-13T00:06:09.496Z,14.51
2023-02-13T00:09:11.639Z,14.53
2023-02-13T00:12:13.782Z,14.47
2023-02-13T00:15:15.766Z,14.35
2023-02-13T00:18:17.937Z,14.33
2023-02-13T00:21:20.000Z,14.42
2023-02-13T00:24:22.111Z,14.38
2023-02-13T00:27:24.203Z,14.37
2023-02-13T00:30:27.458Z,14.22
2023-02-13T00:33:30.453Z,14.22
2023-02-13T00:36:32.592Z,14.27
2023-02-13T00:39:34.579Z,14.18
2023-02-13T00:42:36.752Z,14.28
2023-02-13T00:45:38.725Z,14.07
2023-02-13T00:48:41.161Z,14.06
2023-02-13T00:51:43.249Z,14.00
2023-02-13T00:54:46.870Z,13.99
2023-02-13T00:57:48.940Z,13.98
2023-02-13T01:00:52.836Z,14.08
2023-02-13T01:03:54.940Z,13.96
2023-02-13T01:06:56.979Z,13.97
2023-02-13T01:09:59.001Z,13.89
2023-02-13T01:13:02.190Z,13.71
2023-02-13T01:16:04.790Z,13.77
2023-02-13T01:19:06.986Z,13.67
2023-02-13T01:22:09.685Z,13.58
2023-02-13T01:25:11.819Z,13.49
2023-02-13T01:28:14.401Z,13.56
2023-02-13T01:31:17.206Z,13.42
2023-02-13T01:34:19.415Z,13.43
2023-02-13T01:37:21.452Z,13.19
2023-02-13T01:40:23.433Z,13.25
2023-02-13T01:43:50.509Z,13.25
2023-02-13T01:46:52.587Z,13.27
2023-02-13T01:50:11.391Z,13.20
2023-02-13T01:53:34.052Z,13.17
2023-02-13T01:56:40.989Z,13.06
2023-02-13T01:59:53.192Z,12.94
2023-02-13T02:03:05.345Z,13.19
2023-02-13T02:06:11.652Z,13.08
2023-02-13T02:09:22.807Z,13.10
2023-02-13T02:12:32.330Z,12.99
2023-02-13T02:15:35.212Z,13.17
2023-02-13T02:18:39.203Z,13.11
2023-02-13T02:22:12.855Z,13.21
2023-02-13T02:25:45.744Z,13.13
2023-02-13T02:29:03.018Z,13.07
2023-02-13T02:32:23.591Z,13.05
2023-02-13T02:35:40.543Z,12.87
2023-02-13T02:39:10.183Z,12.77
2023-02-13T02:42:21.314Z,12.73
2023-02-13T02:45:31.976Z,12.70
2023-02-13T02:49:21.703Z,12.66
2023-02-13T02:52:48.876Z,12.49
2023-02-13T02:56:19.054Z,12.60
2023-02-13T02:59:41.567Z,12.72
2023-02-13T03:03:01.939Z,12.89
2023-02-13T03:06:12.114Z,12.96
2023-02-13T03:09:40.051Z,12.71
2023-02-13T03:13:09.785Z,12.88
2023-02-13T03:16:42.625Z,12.92
2023-02-13T03:20:26.051Z,12.92
2023-02-13T03:23:36.304Z,12.70
2023-02-13T03:27:09.403Z,12.99
2023-02-13T03:30:24.479Z,12.89
2023-02-13T03:33:26.438Z,12.72
2023-02-13T03:37:18.754Z,12.64
2023-02-13T03:41:04.654Z,12.42
2023-02-13T03:44:15.996Z,12.52
2023-02-13T03:47:18.167Z,12.19
2023-02-13T03:50:20.255Z,12.36
2023-02-13T03:53:24.668Z,12.32
2023-02-13T03:56:47.522Z,12.46
2023-02-13T03:59:49.821Z,12.43
2023-02-13T04:03:01.354Z,12.52
2023-02-13T04:06:21.207Z,12.44
2023-02-13T04:09:27.274Z,12.53
2023-02-13T04:12:37.822Z,12.47
2023-02-13T04:16:06.362Z,12.22
2023-02-13T04:19:10.049Z,12.38
2023-02-13T04:22:12.540Z,12.23
2023-02-13T04:25:17.648Z,12.21
2023-02-13T04:28:19.887Z,12.23
2023-02-13T04:31:22.765Z,12.16
2023-02-13T04:34:24.920Z,12.03
2023-02-13T04:37:27.057Z,12.15
2023-02-13T04:40:29.094Z,12.11
2023-02-13T04:43:31.113Z,11.86
2023-02-13T04:46:33.222Z,11.68
2023-02-13T04:49:35.255Z,11.72
2023-02-13T04:52:37.652Z,11.85
2023-02-13T04:55:39.645Z,11.72
2023-02-13T04:58:42.169Z,11.66
2023-02-13T05:01:44.304Z,11.52
2023-02-13T05:04:46.463Z,11.87
2023-02-13T05:07:48.666Z,11.99
2023-02-13T05:10:50.746Z,11.70
2023-02-13T05:13:52.698Z,12.08
2023-02-13T05:16:54.827Z,12.28
2023-02-13T05:19:56.925Z,13.62
2023-02-13T05:23:18.139Z,14.53
2023-02-13T05:26:20.296Z,14.49
2023-02-13T05:29:25.433Z,15.63
2023-02-13T05:32:27.491Z,16.57
2023-02-13T05:35:29.821Z,17.54
2023-02-13T05:38:31.835Z,18.12
2023-02-13T05:41:34.281Z,18.73
2023-02-13T05:44:36.273Z,18.39
2023-02-13T05:47:38.275Z,18.88
2023-02-13T05:50:40.397Z,19.55
2023-02-13T05:53:42.398Z,18.59
2023-02-13T05:56:44.641Z,17.71
2023-02-13T05:59:46.821Z,18.12
2023-02-13T06:02:59.031Z,18.42
2023-02-13T06:06:01.148Z,17.94
2023-02-13T06:09:03.605Z,18.08
2023-02-13T06:12:05.994Z,17.95
2023-02-13T06:15:08.293Z,18.41
2023-02-13T06:18:10.982Z,18.05
2023-02-13T06:21:13.055Z,17.38
2023-02-13T06:24:15.175Z,18.45
2023-02-13T06:27:17.157Z,18.17
2023-02-13T06:30:20.076Z,17.51
2023-02-13T06:33:21.983Z,17.65
2023-02-13T06:36:23.938Z,19.32
2023-02-13T06:39:25.920Z,18.29
2023-02-13T06:42:28.051Z,17.79
2023-02-13T06:45:30.053Z,18.11
2023-02-13T06:48:32.273Z,19.18
2023-02-13T06:51:34.428Z,18.76
2023-02-13T06:54:46.874Z,17.99
2023-02-13T06:57:49.698Z,18.84
2023-02-13T07:00:52.546Z,19.11
2023-02-13T07:03:54.726Z,18.46
2023-02-13T07:06:57.496Z,18.26
2023-02-13T07:10:00.695Z,19.81
2023-02-13T07:13:06.096Z,20.51
2023-02-13T07:16:08.422Z,19.29
2023-02-13T07:19:11.840Z,19.42
2023-02-13T07:22:13.882Z,20.41
2023-02-13T07:25:16.003Z,20.28
2023-02-13T07:28:18.048Z,19.33
2023-02-13T07:31:20.230Z,19.93
2023-02-13T07:34:23.633Z,20.72
2023-02-13T07:37:28.646Z,20.01
2023-02-13T07:40:31.229Z,19.57
2023-02-13T07:43:33.780Z,20.76
2023-02-13T07:46:37.556Z,20.93
2023-02-13T07:49:39.754Z,20.14
2023-02-13T07:52:41.745Z,19.73
2023-02-13T07:55:44.137Z,20.96
2023-02-13T07:58:46.313Z,21.17
2023-02-13T08:01:49.550Z,20.21
2023-02-13T08:04:51.768Z,20.63
2023-02-13T08:07:54.026Z,21.33
2023-02-13T08:11:15.285Z,20.69
2023-02-13T08:14:17.515Z,20.47
2023-02-13T08:17:19.506Z,21.53
2023-02-13T08:20:21.897Z,21.68
2023-02-13T08:23:23.988Z,20.97
2023-02-13T08:26:26.121Z,21.19
2023-02-13T08:29:28.127Z,21.84
2023-02-13T08:32:30.308Z,21.63
2023-02-13T08:35:32.453Z,20.97
2023-02-13T08:38:34.718Z,21.40
2023-02-13T08:41:36.822Z,21.68
2023-02-13T08:44:41.137Z,21.06
2023-02-13T08:47:43.230Z,20.18
2023-02-13T08:50:45.209Z,21.40
2023-02-13T08:53:47.658Z,21.61
2023-02-13T08:56:49.669Z,20.40
2023-02-13T08:59:51.588Z,21.06
2023-02-13T09:02:53.643Z,20.98
2023-02-13T09:05:59.693Z,20.46
2023-02-13T09:09:02.109Z,19.69
2023-02-13T09:12:04.271Z,20.95
2023-02-13T09:15:06.434Z,21.42
2023-02-13T09:18:08.585Z,20.66
2023-02-13T09:21:12.797Z,19.80
2023-02-13T09:24:14.886Z,19.67
2023-02-13T09:27:16.890Z,19.99
2023-02-13T09:30:23.963Z,19.91
2023-02-13T09:33:27.194Z,20.22
2023-02-13T09:36:29.208Z,20.14
2023-02-13T09:39:31.457Z,19.93
2023-02-13T09:42:37.195Z,19.88
2023-02-13T09:45:39.800Z,19.98
2023-02-13T09:48:45.590Z,19.58
2023-02-13T09:51:56.209Z,19.39
2023-02-13T09:54:58.357Z,19.34
2023-02-13T09:58:24.176Z,19.23
2023-02-13T10:01:33.070Z,19.08
2023-02-13T10:04:57.077Z,18.83
2023-02-13T10:08:20.688Z,18.76
2023-02-13T10:11:28.436Z,18.80
2023-02-13T10:14:42.646Z,18.71
2023-02-13T10:17:55.201Z,18.48
2023-02-13T10:21:02.469Z,18.59
2023-02-13T10:24:14.850Z,18.39
2023-02-13T10:27:25.284Z,18.40
2023-02-13T10:30:39.511Z,18.48
2023-02-13T10:34:00.828Z,18.50
2023-02-13T10:37:04.355Z,18.32
2023-02-13T10:40:13.681Z,18.58
2023-02-13T10:43:21.048Z,18.56
2023-02-13T10:46:36.852Z,18.78
2023-02-13T10:49:47.704Z,18.68
2023-02-13T10:53:13.085Z,18.51
2023-02-13T10:56:20.808Z,18.56
2023-02-13T10:59:31.723Z,18.54
2023-02-13T11:02:34.970Z,18.63
2023-02-13T11:05:39.689Z,18.49
2023-02-13T11:08:46.013Z,18.59
2023-02-13T11:11:48.118Z,18.46
2023-02-13T11:14:58.900Z,18.39
2023-02-13T11:18:12.568Z,18.41
2023-02-13T11:21:22.502Z,18.36
2023-02-13T11:24:26.819Z,18.36
2023-02-13T11:27:33.753Z,18.33
2023-02-13T11:30:38.561Z,18.25
2023-02-13T11:33:40.851Z,18.31
2023-02-13T11:36:43.042Z,18.37
2023-02-13T11:39:50.145Z,18.29
2023-02-13T11:42:53.074Z,18.35
2023-02-13T11:46:14.666Z,18.41
2023-02-13T11:49:22.158Z,18.54
2023-02-13T11:52:28.217Z,18.65
2023-02-13T11:55:36.513Z,18.56
2023-02-13T11:58:39.677Z,18.49
2023-02-13T12:01:43.072Z,18.59
2023-02-13T12:04:46.288Z,18.49
2023-02-13T12:07:48.782Z,18.45
2023-02-13T12:10:51.104Z,18.36
2023-02-13T12:13:53.253Z,18.02
2023-02-13T12:17:00.975Z,17.81
2023-02-13T12:20:04.215Z,17.73
2023-02-13T12:23:20.521Z,17.82
2023-02-13T12:26:44.158Z,17.66
2023-02-13T12:29:59.411Z,17.54
2023-02-13T12:33:03.332Z,17.46
2023-02-13T12:36:16.675Z,17.35
2023-02-13T12:39:42.700Z,17.14
2023-02-13T12:42:47.585Z,17.05
2023-02-13T12:45:52.412Z,16.99
2023-02-13T12:49:13.187Z,16.81
2023-02-13T12:52:15.367Z,16.79
2023-02-13T12:55:54.305Z,16.78
2023-02-13T12:59:05.123Z,16.76
2023-02-13T13:02:34.769Z,16.67
2023-02-13T13:05:50.669Z,16.61
2023-02-13T13:09:05.750Z,16.58
2023-02-13T13:12:23.064Z,16.60
2023-02-13T13:15:50.534Z,16.60
2023-02-13T13:19:02.350Z,16.57
2023-02-13T13:22:19.587Z,16.52
2023-02-13T13:25:29.769Z,16.52
2023-02-13T13:28:39.512Z,16.47
2023-02-13T13:31:53.507Z,16.41
2023-02-13T13:34:57.000Z,16.31
2023-02-13T13:38:06.760Z,16.32
2023-02-13T13:41:30.882Z,16.35
2023-02-13T13:44:38.671Z,16.27
2023-02-13T13:47:56.216Z,16.28
2023-02-13T13:50:59.466Z,16.31
2023-02-13T13:54:08.251Z,16.39
2023-02-13T13:57:12.456Z,16.36
2023-02-13T14:00:16.484Z,16.19
2023-02-13T14:03:24.989Z,16.27
2023-02-13T14:06:45.598Z,16.27
2023-02-13T14:09:47.898Z,16.17
2023-02-13T14:13:10.394Z,16.11
2023-02-13T14:16:12.713Z,16.13
2023-02-13T14:19:39.164Z,16.01
2023-02-13T14:22:44.861Z,16.12
2023-02-13T14:25:47.789Z,16.03
2023-02-13T14:28:50.432Z,15.71
2023-02-13T14:32:01.899Z,15.60
2023-02-13T14:35:17.158Z,15.82
2023-02-13T14:38:25.310Z,15.71
2023-02-13T14:41:46.336Z,15.87
2023-02-13T14:44:53.605Z,15.90
2023-02-13T14:47:57.725Z,15.96
2023-02-13T14:51:05.753Z,15.78
2023-02-13T14:54:32.419Z,15.89
2023-02-13T14:57:44.260Z,15.74
2023-02-13T15:00:53.719Z,15.67
2023-02-13T15:04:12.876Z,15.73
2023-02-13T15:07:18.045Z,15.71
2023-02-13T15:10:49.692Z,15.63
2023-02-13T15:13:51.682Z,15.57
2023-02-13T15:17:18.403Z,15.54
2023-02-13T15:20:26.562Z,15.51
2023-02-13T15:23:34.873Z,15.01
2023-02-13T15:26:37.144Z,15.37
2023-02-13T15:29:54.466Z,15.44
2023-02-13T15:33:21.486Z,15.27
2023-02-13T15:36:26.468Z,15.11
2023-02-13T15:39:31.359Z,15.19
2023-02-13T15:42:33.537Z,15.60
2023-02-13T15:45:35.605Z,15.85
2023-02-13T15:48:38.146Z,16.20
2023-02-13T15:51:40.272Z,16.52
2023-02-13T15:54:50.003Z,16.59
2023-02-13T15:57:55.146Z,16.62
2023-02-13T16:01:01.651Z,16.88
2023-02-13T16:04:07.655Z,17.16
2023-02-13T16:07:13.251Z,17.13
2023-02-13T16:10:31.425Z,17.23
2023-02-13T16:13:33.626Z,17.16
2023-02-13T16:16:53.318Z,17.16
2023-02-13T16:20:00.152Z,17.10
2023-02-13T16:23:06.594Z,17.05
2023-02-13T16:26:15.646Z,17.04
2023-02-13T16:29:23.879Z,17.35
2023-02-13T16:32:32.218Z,17.63
2023-02-13T16:35:40.873Z,17.57
2023-02-13T16:38:47.796Z,17.39
2023-02-13T16:41:50.816Z,17.33
2023-02-13T16:45:23.065Z,17.20
2023-02-13T16:48:25.372Z,17.00
2023-02-13T16:51:30.473Z,17.02
2023-02-13T16:54:44.382Z,17.25
2023-02-13T16:57:46.647Z,17.33
2023-02-13T17:00:51.438Z,17.33
2023-02-13T17:03:54.354Z,17.47
2023-02-13T17:06:56.503Z,17.65
2023-02-13T17:10:05.489Z,18.04
2023-02-13T17:13:13.131Z,18.10
2023-02-13T17:16:15.267Z,18.09
2023-02-13T17:19:17.292Z,18.72
2023-02-13T17:22:30.856Z,18.61
2023-02-13T17:25:35.967Z,18.72
2023-02-13T17:28:38.156Z,19.68
2023-02-13T17:31:41.817Z,20.51
2023-02-13T17:34:46.630Z,20.93
2023-02-13T17:37:48.699Z,22.31
2023-02-13T17:40:50.881Z,22.23
2023-02-13T17:43:52.984Z,22.00
2023-02-13T17:46:55.299Z,21.06
2023-02-13T17:50:08.528Z,20.06
2023-02-13T17:53:32.913Z,19.21
2023-02-13T17:56:35.055Z,19.73
2023-02-13T17:59:37.788Z,20.56
2023-02-13T18:02:39.897Z,20.42
2023-02-13T18:05:42.114Z,20.09
2023-02-13T18:08:44.092Z,19.76
2023-02-13T18:12:04.529Z,19.34
2023-02-13T18:15:09.827Z,19.00
2023-02-13T18:18:16.129Z,18.76
2023-02-13T18:21:21.724Z,18.52
2023-02-13T18:24:28.732Z,18.35
2023-02-13T18:27:30.992Z,18.37
2023-02-13T18:30:33.197Z,18.51
2023-02-13T18:33:36.212Z,18.56
2023-02-13T18:36:38.710Z,18.46
2023-02-13T18:39:40.740Z,18.65
2023-02-13T18:42:42.775Z,18.88
2023-02-13T18:45:46.083Z,18.96
2023-02-13T18:48:48.422Z,19.10
2023-02-13T18:51:51.381Z,19.06
2023-02-13T18:54:54.548Z,18.99
2023-02-13T18:57:57.542Z,19.05
2023-02-13T19:01:11.497Z,19.06
2023-02-13T19:04:13.626Z,18.96
2023-02-13T19:07:17.033Z,18.99
2023-02-13T19:10:19.202Z,18.87
2023-02-13T19:13:22.813Z,18.77
2023-02-13T19:16:25.222Z,18.66
2023-02-13T19:19:31.453Z,19.10
2023-02-13T19:22:34.048Z,18.71
2023-02-13T19:25:38.222Z,18.36
2023-02-13T19:28:41.084Z,18.72
2023-02-13T19:31:43.315Z,19.73
2023-02-13T19:34:48.610Z,20.58
2023-02-13T19:37:50.572Z,20.61
2023-02-13T19:40:54.385Z,19.24
2023-02-13T19:43:56.805Z,18.35
2023-02-13T19:46:58.924Z,17.90
2023-02-13T19:50:01.037Z,17.68
2023-02-13T19:53:04.441Z,17.57
2023-02-13T19:56:09.073Z,17.55
2023-02-13T19:59:13.589Z,17.54
2023-02-13T20:02:17.343Z,17.38
2023-02-13T20:05:19.740Z,17.42
2023-02-13T20:08:21.757Z,17.22
2023-02-13T20:11:24.029Z,17.10
2023-02-13T20:14:27.207Z,17.01
2023-02-13T20:17:29.230Z,17.18
2023-02-13T20:20:31.211Z,17.11
2023-02-13T20:23:33.385Z,16.88
2023-02-13T20:26:40.674Z,16.69
2023-02-13T20:29:58.870Z,16.72
2023-02-13T20:33:09.099Z,16.71
2023-02-13T20:36:14.234Z,16.56
2023-02-13T20:39:17.265Z,16.56
2023-02-13T20:42:23.886Z,16.47
2023-02-13T20:45:28.849Z,16.43
2023-02-13T20:48:38.939Z,16.41
2023-02-13T20:51:42.914Z,16.41
2023-02-13T20:54:47.227Z,16.49
2023-02-13T20:57:54.475Z,16.58
2023-02-13T21:01:03.205Z,16.63
2023-02-13T21:04:11.495Z,16.47
2023-02-13T21:07:15.065Z,16.41
2023-02-13T21:10:18.161Z,16.41
2023-02-13T21:13:20.214Z,16.30
2023-02-13T21:16:25.363Z,16.34
2023-02-13T21:19:27.455Z,16.30
2023-02-13T21:22:31.324Z,16.24
2023-02-13T21:25:33.632Z,16.17
2023-02-13T21:28:37.043Z,16.27
2023-02-13T21:31:49.199Z,16.07
2023-02-13T21:34:51.475Z,16.49
2023-02-13T21:37:55.200Z,18.29
2023-02-13T21:41:13.784Z,19.84
2023-02-13T21:44:16.932Z,19.85
2023-02-13T21:47:19.117Z,21.02
2023-02-13T21:50:22.394Z,21.52
2023-02-13T21:53:24.464Z,21.22
2023-02-13T21:56:29.765Z,21.65
2023-02-13T21:59:32.820Z,22.11
2023-02-13T22:02:34.954Z,21.70
2023-02-13T22:05:37.065Z,22.08
2023-02-13T22:08:39.494Z,22.41
2023-02-13T22:11:44.729Z,22.30
2023-02-13T22:14:46.704Z,20.80
2023-02-13T22:17:48.767Z,19.84
2023-02-13T22:20:51.428Z,19.22
2023-02-13T22:23:53.473Z,19.03
2023-02-13T22:26:55.834Z,18.84
2023-02-13T22:29:57.866Z,18.75
2023-02-13T22:33:00.229Z,18.62
2023-02-13T22:36:02.400Z,18.44
2023-02-13T22:39:05.368Z,18.30
2023-02-13T22:42:07.503Z,18.21
2023-02-13T22:45:09.822Z,18.13
2023-02-13T22:48:11.848Z,18.02
2023-02-13T22:51:17.656Z,17.94
2023-02-13T22:54:19.726Z,17.94
2023-02-13T22:57:21.918Z,17.73
2023-02-13T23:00:24.303Z,17.64
2023-02-13T23:03:26.368Z,17.48
2023-02-13T23:06:29.039Z,17.54
2023-02-13T23:09:31.080Z,17.52
2023-02-13T23:12:40.707Z,17.65
2023-02-13T23:15:42.976Z,17.40
2023-02-13T23:18:50.152Z,17.16
2023-02-13T23:21:52.221Z,17.09
2023-02-13T23:24:54.272Z,16.94
2023-02-13T23:27:59.408Z,16.97
2023-02-13T23:31:03.123Z,16.93
2023-02-13T23:34:05.437Z,16.91
2023-02-13T23:37:07.447Z,16.74
2023-02-13T23:40:12.248Z,16.53
2023-02-13T23:43:14.257Z,16.59
2023-02-13T23:46:16.241Z,16.51
2023-02-13T23:49:18.595Z,16.68
2023-02-13T23:52:20.949Z,16.76
2023-02-13T23:55:23.049Z,16.67
2023-02-13T23:58:25.084Z,16.64
